»·PEaware :: N2060V KSNA-KSNA

N2060V :: KSNA-KSNA

FLIGHT INFORMATION

Flight Status: Arrived
Operator: Privately registered:
United States
More flights under this callsign
Pilot: Dheeraj L. (18560)
Aircraft: BEECH AIRCRAFT DUKE
(BE60)
More flights by this aircraft type
Origin: KSNA John Wayne-Orange Co
United States
Destination: KSNA John Wayne-Orange Co
United States
More flights between these airports :: More routes between these airports
Route: +SLI
File this flight plan on PilotEdge
Remarks: I-1 Custom Instrument weather Constructive feedback is strongly appreciated.
Altitude:
(Current/Filed)
4,000ft
Speed:
(Current/Filed)
180kts
Departed: 16-Apr-18 11:41 AM
Arrived: 16-Apr-18 12:02 PM
Distance/Time
Traveled:
0nm/0:21
Distance/Time
To Go:
Arrived

Flight Plot

Page will automatically refresh every two minutes.


Map Options




Map Legend


Flown Route
Filed Route
Departure Airport
Arrival Airport
Navaid (VOR, NDB)
Fix

Horizontal Profiles

Position Reports

Time Latitude Longitude Heading Altitude Ground
Speed
16-Apr-18 11:24 33.670991 -117.867642 208 59ft 0kts
16-Apr-18 11:25 33.670990 -117.867643 208 59ft 0kts
16-Apr-18 11:26 33.670989 -117.867644 208 59ft 0kts
16-Apr-18 11:27 33.670988 -117.867645 208 59ft 0kts
16-Apr-18 11:28 33.670986 -117.867646 208 59ft 0kts
16-Apr-18 11:29 33.670985 -117.867647 208 59ft 0kts
16-Apr-18 11:30 33.670984 -117.867647 208 59ft 0kts
16-Apr-18 11:31 33.670984 -117.867647 208 59ft 0kts
16-Apr-18 11:32 33.670983 -117.867648 208 59ft 0kts
16-Apr-18 11:33 33.670983 -117.867648 208 59ft 0kts
16-Apr-18 11:34 33.670983 -117.867648 208 59ft 0kts
16-Apr-18 11:35 33.670934 -117.867702 238 59ft 3kts
16-Apr-18 11:36 33.672267 -117.867924 29 59ft 13kts
16-Apr-18 11:37 33.675900 -117.865897 25 59ft 18kts
16-Apr-18 11:38 33.678863 -117.864031 27 59ft 16kts
16-Apr-18 11:39 33.679647 -117.863666 306 59ft 0kts
16-Apr-18 11:40 33.674391 -117.867764 202 60ft 99kts
16-Apr-18 11:41 33.649689 -117.896071 230 1278ft 144kts
16-Apr-18 11:42 33.624139 -117.936489 227 2263ft 154kts
16-Apr-18 11:43 33.597908 -117.975826 233 3505ft 150kts
16-Apr-18 11:44 33.607870 -118.015063 344 4045ft 175kts
16-Apr-18 11:45 33.652895 -117.993276 26 3995ft 182kts
16-Apr-18 11:46 33.697208 -117.969419 21 4018ft 170kts
16-Apr-18 11:47 33.739791 -117.945542 21 4038ft 165kts
16-Apr-18 11:48 33.780583 -117.919315 35 4017ft 167kts
16-Apr-18 11:49 33.816459 -117.883363 34 3997ft 168kts
16-Apr-18 11:50 33.855163 -117.851885 31 4013ft 166kts
16-Apr-18 11:51 33.894001 -117.820956 33 4009ft 167kts
16-Apr-18 11:52 33.926916 -117.782362 77 3888ft 177kts
16-Apr-18 11:53 33.894218 -117.753199 188 3342ft 166kts
16-Apr-18 11:54 33.853192 -117.760619 195 3003ft 142kts
16-Apr-18 11:55 33.816909 -117.778819 207 2765ft 132kts
16-Apr-18 11:56 33.787615 -117.797217 213 2250ft 108kts
16-Apr-18 11:57 33.762019 -117.814736 208 1569ft 103kts
16-Apr-18 11:58 33.739738 -117.828851 196 1261ft 101kts
16-Apr-18 11:59 33.713693 -117.845401 202 865ft 112kts
16-Apr-18 12:00 33.687688 -117.861291 204 207ft 99kts
16-Apr-18 12:01 33.673949 -117.870322 298 59ft 3kts
16-Apr-18 12:02 33.674018 -117.870458 302 59ft 0kts
16-Apr-18 12:03 33.674698 -117.871369 310 59ft 11kts
16-Apr-18 12:04 33.675010 -117.871776 309 59ft 0kts
16-Apr-18 12:05 33.675010 -117.871776 309 59ft 0kts
16-Apr-18 12:06 33.675010 -117.871776 309 59ft 0kts
16-Apr-18 12:07 33.675010 -117.871776 309 59ft 0kts
16-Apr-18 12:08 33.675010 -117.871776 309 59ft 0kts
16-Apr-18 12:09 33.675010 -117.871776 309 59ft 0kts
16-Apr-18 12:10 33.675010 -117.871776 309 59ft 0kts
16-Apr-18 12:11 33.675010 -117.871776 309 59ft 0kts
16-Apr-18 12:12 33.675010 -117.871776 309 59ft 0kts
16-Apr-18 12:13 33.675010 -117.871776 309 59ft 0kts
16-Apr-18 12:14 33.675010 -117.871776 309 59ft 0kts
16-Apr-18 12:15 33.675010 -117.871776 309 59ft 0kts

Navigation Log

Ident Type
1. KSNA Airport
2. SLI Navaid
3. KSNA Airport